Terminal Aerodrome Forecast
Issued by NWS

Home | Current Version | Previous Version | Text Only | Print | Product List | Glossary On
Versions: 1 2 3 4 5 6 7 8 9 10 11 12
000
FTUS46 KSEW 052329
TAFPAE
TAF
KPAE 052329Z 0600/0624 35005KT P6SM BKN200
     FM060600 01003KT P6SM BKN200
     FM061300 17004KT P6SM BKN200
     FM061800 23008KT P6SM SCT200=

USA.gov is the U.S. government's official web portal to all federal, state and local government web resources and services.